createdAt,value
2019-01-23T00:00:31.384Z,14.00
2019-01-23T00:03:00.019Z,11.43
2019-01-23T00:05:28.655Z,11.80
2019-01-23T00:07:57.313Z,10.37
2019-01-23T00:10:25.934Z,14.67
2019-01-23T00:12:54.553Z,12.20
2019-01-23T00:15:23.222Z,13.77
2019-01-23T00:17:51.778Z,12.87
2019-01-23T00:20:20.413Z,10.70
2019-01-23T00:22:49.090Z,9.40
2019-01-23T00:25:17.719Z,11.97
2019-01-23T00:27:46.446Z,7.97
2019-01-23T00:30:16.249Z,8.17
2019-01-23T00:32:51.067Z,10.80
2019-01-23T00:35:19.695Z,8.97
2019-01-23T00:37:48.484Z,8.33
2019-01-23T00:40:17.513Z,9.13
2019-01-23T00:42:46.143Z,7.87
2019-01-23T00:45:16.208Z,8.77
2019-01-23T00:47:44.850Z,11.93
2019-01-23T00:50:15.089Z,9.90
2019-01-23T00:52:44.185Z,7.87
2019-01-23T00:55:15.613Z,8.13
2019-01-23T00:57:44.254Z,6.60
2019-01-23T01:00:18.345Z,6.50
2019-01-23T01:02:47.083Z,4.57
2019-01-23T01:05:16.402Z,6.47
2019-01-23T01:07:45.054Z,5.87
2019-01-23T01:10:20.736Z,5.90
2019-01-23T01:12:49.507Z,3.73
2019-01-23T01:15:18.251Z,4.93
2019-01-23T01:17:46.976Z,6.97
2019-01-23T01:20:16.356Z,7.50
2019-01-23T01:22:45.177Z,5.13
2019-01-23T01:25:18.211Z,4.10
2019-01-23T01:27:46.792Z,5.43
2019-01-23T01:30:20.775Z,4.80
2019-01-23T01:32:49.500Z,4.87
2019-01-23T01:35:18.174Z,5.27
2019-01-23T01:37:46.907Z,5.00
2019-01-23T01:40:17.548Z,4.73
2019-01-23T01:42:46.323Z,5.23
2019-01-23T01:45:16.346Z,6.33
2019-01-23T01:47:44.985Z,6.97
2019-01-23T01:50:16.513Z,5.67
2019-01-23T01:52:45.343Z,6.23
2019-01-23T01:55:14.161Z,5.47
2019-01-23T01:57:43.051Z,5.83
2019-01-23T02:00:19.896Z,4.97
2019-01-23T02:02:48.696Z,5.57
2019-01-23T02:05:17.819Z,6.63
2019-01-23T02:07:46.450Z,6.33
2019-01-23T02:10:19.771Z,6.97
2019-01-23T02:12:48.883Z,6.50
2019-01-23T02:15:18.337Z,8.20
2019-01-23T02:17:47.069Z,6.10
2019-01-23T02:20:20.631Z,6.83
2019-01-23T02:22:49.303Z,7.27
2019-01-23T02:25:18.183Z,9.43
2019-01-23T02:27:47.389Z,9.13
2019-01-23T02:30:18.512Z,10.20
2019-01-23T02:32:47.130Z,12.23
2019-01-23T02:35:15.749Z,11.40
2019-01-23T02:37:44.424Z,13.00
2019-01-23T02:40:18.040Z,10.03
2019-01-23T02:42:46.680Z,10.43
2019-01-23T02:45:17.203Z,11.07
2019-01-23T02:47:46.117Z,14.20
2019-01-23T02:50:15.740Z,14.40
2019-01-23T02:52:44.655Z,15.90
2019-01-23T02:55:13.983Z,13.07
2019-01-23T02:57:42.703Z,15.80
2019-01-23T03:00:18.745Z,13.33
2019-01-23T03:02:48.168Z,14.87
2019-01-23T03:05:18.396Z,16.03
2019-01-23T03:07:47.267Z,16.50
2019-01-23T03:10:17.891Z,15.80
2019-01-23T03:12:46.730Z,14.20
2019-01-23T03:15:17.194Z,18.57
2019-01-23T03:17:45.915Z,18.07
2019-01-23T03:20:16.846Z,19.20
2019-01-23T03:22:45.692Z,20.50
2019-01-23T03:25:15.323Z,25.30
2019-01-23T03:27:44.064Z,20.67
2019-01-23T03:30:17.865Z,19.80
2019-01-23T03:32:46.493Z,20.30
2019-01-23T03:35:15.407Z,19.03
2019-01-23T03:37:44.190Z,21.93
2019-01-23T03:40:15.765Z,23.83
2019-01-23T03:42:44.411Z,22.60
2019-01-23T03:45:14.380Z,21.97
2019-01-23T03:47:43.952Z,23.73
2019-01-23T03:50:14.574Z,24.97
2019-01-23T03:52:43.244Z,20.93
2019-01-23T03:55:13.985Z,28.53
2019-01-23T03:57:42.810Z,23.33
2019-01-23T04:00:14.134Z,20.97
2019-01-23T04:02:42.752Z,23.10
2019-01-23T04:05:12.284Z,24.20
2019-01-23T04:07:40.951Z,26.07
2019-01-23T04:10:12.376Z,21.03
2019-01-23T04:12:41.017Z,24.47
2019-01-23T04:15:12.065Z,23.80
2019-01-23T04:17:40.691Z,21.87
2019-01-23T04:20:18.404Z,21.63
2019-01-23T04:22:47.071Z,23.07
2019-01-23T04:25:16.054Z,25.27
2019-01-23T04:27:44.720Z,22.90
2019-01-23T04:30:16.230Z,22.63
2019-01-23T04:32:44.854Z,20.87
2019-01-23T04:35:13.615Z,20.80
2019-01-23T04:37:42.827Z,20.87
2019-01-23T04:40:13.263Z,23.83
2019-01-23T04:42:42.109Z,28.40
2019-01-23T04:45:15.795Z,27.53
2019-01-23T04:47:44.717Z,26.97
2019-01-23T04:50:15.517Z,30.67
2019-01-23T04:52:48.597Z,27.40
2019-01-23T04:55:17.285Z,30.97
2019-01-23T04:57:45.874Z,27.53
2019-01-23T05:00:16.246Z,27.93
2019-01-23T05:02:44.866Z,29.27
2019-01-23T05:05:13.525Z,30.67
2019-01-23T05:07:42.071Z,29.50
2019-01-23T05:10:10.798Z,32.70
2019-01-23T05:12:39.645Z,30.23
2019-01-23T05:15:09.779Z,29.97
2019-01-23T05:17:38.295Z,31.30
2019-01-23T05:20:12.249Z,32.27
2019-01-23T05:22:40.868Z,34.87
2019-01-23T05:25:09.706Z,32.27
2019-01-23T05:27:38.961Z,35.07
2019-01-23T05:30:19.402Z,35.47
2019-01-23T05:32:48.079Z,31.93
2019-01-23T05:35:16.801Z,36.20
2019-01-23T05:37:45.380Z,32.47
2019-01-23T05:40:14.755Z,35.43
2019-01-23T05:42:43.495Z,40.63
2019-01-23T05:45:13.868Z,43.37
2019-01-23T05:47:42.543Z,42.33
2019-01-23T05:50:14.011Z,36.90
2019-01-23T05:52:42.844Z,42.00
2019-01-23T05:55:13.733Z,41.80
2019-01-23T05:57:42.353Z,44.37
2019-01-23T06:00:19.991Z,50.37
2019-01-23T06:02:48.631Z,52.80
2019-01-23T06:05:18.158Z,50.17
2019-01-23T06:07:47.740Z,47.00
2019-01-23T06:10:16.570Z,44.83
2019-01-23T06:12:45.193Z,45.70
2019-01-23T06:15:15.690Z,44.03
2019-01-23T06:17:44.317Z,44.97
2019-01-23T06:20:21.008Z,46.60
2019-01-23T06:22:49.936Z,43.73
2019-01-23T06:25:18.708Z,43.73
2019-01-23T06:27:47.406Z,45.13
2019-01-23T06:30:18.326Z,45.73
2019-01-23T06:32:46.969Z,45.73
2019-01-23T06:35:16.040Z,45.70
2019-01-23T06:37:44.673Z,46.53
2019-01-23T06:40:15.102Z,43.57
2019-01-23T06:42:43.791Z,42.47
2019-01-23T06:45:14.876Z,45.90
2019-01-23T06:47:43.529Z,41.50
2019-01-23T06:50:15.157Z,46.30
2019-01-23T06:52:43.855Z,42.77
2019-01-23T06:55:12.681Z,44.30
2019-01-23T06:57:41.474Z,42.03
2019-01-23T07:00:17.067Z,37.97
2019-01-23T07:02:43.531Z,37.53
2019-01-23T07:05:21.506Z,41.43
2019-01-23T07:07:50.105Z,39.93
2019-01-23T07:10:20.846Z,38.97
2019-01-23T07:12:49.510Z,43.23
2019-01-23T07:15:18.340Z,47.07
2019-01-23T07:17:46.982Z,44.77
2019-01-23T07:20:21.467Z,46.37
2019-01-23T07:22:50.077Z,48.80
2019-01-23T07:25:18.703Z,53.10
2019-01-23T07:27:47.378Z,56.53
2019-01-23T07:30:24.358Z,54.20
2019-01-23T07:32:52.160Z,51.30
2019-01-23T07:35:20.795Z,61.20
2019-01-23T07:37:49.423Z,105.37
2019-01-23T07:40:18.327Z,132.23
2019-01-23T07:42:46.971Z,167.87
2019-01-23T07:45:18.617Z,160.03
2019-01-23T07:47:47.280Z,160.40
2019-01-23T07:50:16.218Z,156.40
2019-01-23T07:52:44.942Z,151.53
2019-01-23T07:55:16.355Z,140.83
2019-01-23T07:57:45.883Z,161.07
2019-01-23T08:00:20.144Z,141.27
2019-01-23T08:02:48.785Z,148.23
2019-01-23T08:05:23.094Z,235.37
2019-01-23T08:07:51.971Z,146.23
2019-01-23T08:10:21.815Z,132.03
2019-01-23T08:12:50.374Z,107.97
2019-01-23T08:15:24.130Z,86.97
2019-01-23T08:17:52.822Z,87.47
2019-01-23T08:20:23.754Z,78.03
2019-01-23T08:22:52.484Z,70.17
2019-01-23T08:25:21.116Z,67.83
2019-01-23T08:27:49.740Z,67.83
2019-01-23T08:30:25.574Z,63.33
2019-01-23T08:32:54.313Z,69.58
2019-01-23T08:35:23.557Z,67.55
2019-01-23T08:37:52.232Z,63.02
2019-01-23T08:40:21.055Z,61.63
2019-01-23T08:42:49.704Z,57.43
2019-01-23T08:45:18.429Z,58.25
2019-01-23T08:47:47.056Z,57.08
2019-01-23T08:50:24.603Z,58.20
2019-01-23T08:52:53.427Z,54.33
2019-01-23T08:55:23.062Z,55.35
2019-01-23T08:57:51.987Z,56.85
2019-01-23T09:00:20.721Z,50.70
2019-01-23T09:02:49.395Z,54.83
2019-01-23T09:05:18.074Z,52.98
2019-01-23T09:07:46.710Z,53.35
2019-01-23T09:10:20.666Z,53.58
2019-01-23T09:12:49.355Z,50.80
2019-01-23T09:15:18.483Z,53.52
2019-01-23T09:17:47.050Z,48.95
2019-01-23T09:20:17.963Z,48.17
2019-01-23T09:22:46.590Z,53.75
2019-01-23T09:25:23.461Z,25.32
2019-01-23T09:27:52.132Z,20.75
2019-01-23T09:30:33.173Z,20.08
2019-01-23T09:33:19.847Z,21.40
2019-01-23T09:36:16.858Z,25.68
2019-01-23T09:38:57.576Z,19.20
2019-01-23T09:41:59.005Z,22.05
2019-01-23T09:44:36.083Z,21.50
2019-01-23T09:47:19.337Z,19.20
2019-01-23T09:49:54.087Z,25.00
2019-01-23T09:52:25.629Z,20.85
2019-01-23T09:54:54.185Z,21.37
2019-01-23T09:57:22.783Z,21.07
2019-01-23T09:59:51.437Z,24.27
2019-01-23T10:02:20.003Z,17.20
2019-01-23T10:04:48.600Z,16.60
2019-01-23T10:07:17.231Z,16.53
2019-01-23T10:09:48.643Z,18.07
2019-01-23T10:12:17.302Z,19.02
2019-01-23T10:14:45.917Z,17.65
2019-01-23T10:17:14.543Z,17.67
2019-01-23T10:19:43.079Z,19.93
2019-01-23T10:22:11.725Z,16.97
2019-01-23T10:24:40.349Z,15.60
2019-01-23T10:27:09.020Z,18.45
2019-01-23T10:29:37.634Z,16.90
2019-01-23T10:32:06.299Z,17.12
2019-01-23T10:34:34.972Z,15.00
2019-01-23T10:37:03.594Z,15.00
2019-01-23T10:39:32.221Z,15.60
2019-01-23T10:42:01.064Z,14.68
2019-01-23T10:44:29.695Z,12.68
2019-01-23T10:47:07.552Z,12.60
2019-01-23T10:49:36.246Z,14.98
2019-01-23T10:52:04.888Z,17.40
2019-01-23T10:54:33.452Z,13.78
2019-01-23T10:57:02.159Z,14.80
2019-01-23T10:59:30.796Z,10.00
2019-01-23T11:01:59.425Z,8.78
2019-01-23T11:04:28.088Z,6.35
2019-01-23T11:06:56.712Z,7.97
2019-01-23T11:09:25.457Z,6.25
2019-01-23T11:11:54.319Z,6.22
2019-01-23T11:14:22.949Z,5.12
2019-01-23T11:16:51.580Z,6.60
2019-01-23T11:19:20.477Z,8.93
2019-01-23T11:21:49.169Z,8.53
2019-01-23T11:24:17.716Z,8.88
2019-01-23T11:26:46.581Z,12.80
2019-01-23T11:29:15.193Z,12.85
2019-01-23T11:31:43.806Z,5.33
2019-01-23T11:34:12.460Z,9.08
2019-01-23T11:36:41.106Z,4.80
2019-01-23T11:39:09.824Z,10.08
2019-01-23T11:41:38.433Z,6.15
2019-01-23T11:44:07.055Z,6.80
2019-01-23T11:46:35.618Z,7.72
2019-01-23T11:49:04.382Z,10.58
2019-01-23T11:51:32.927Z,6.70
2019-01-23T11:54:01.549Z,9.70
2019-01-23T11:56:30.353Z,6.62
2019-01-23T11:58:58.888Z,10.68
2019-01-23T12:01:27.926Z,8.68
2019-01-23T12:03:56.611Z,12.23
2019-01-23T12:06:25.240Z,9.08
2019-01-23T12:08:53.920Z,12.55
2019-01-23T12:11:22.823Z,13.48
2019-01-23T12:13:51.441Z,13.22
2019-01-23T12:16:20.057Z,10.95
2019-01-23T12:18:48.920Z,16.12
2019-01-23T12:21:17.559Z,12.82
2019-01-23T12:23:46.123Z,11.43
2019-01-23T12:26:14.779Z,10.78
2019-01-23T12:28:43.409Z,10.93
2019-01-23T12:31:12.036Z,13.13
2019-01-23T12:33:40.823Z,19.10
2019-01-23T12:36:09.452Z,14.85
2019-01-23T12:38:38.084Z,11.48
2019-01-23T12:41:06.785Z,18.62
2019-01-23T12:43:35.418Z,13.15
2019-01-23T12:46:04.188Z,13.35
2019-01-23T12:48:32.743Z,17.30
2019-01-23T12:51:01.365Z,16.90
2019-01-23T12:53:30.098Z,13.70
2019-01-23T12:55:58.675Z,18.15
2019-01-23T12:58:27.239Z,15.03
2019-01-23T13:00:55.897Z,21.10
2019-01-23T13:03:24.519Z,12.07
2019-01-23T13:05:53.155Z,21.35
2019-01-23T13:08:21.865Z,14.40
2019-01-23T13:10:50.487Z,16.12
2019-01-23T13:13:19.272Z,18.90
2019-01-23T13:15:47.964Z,17.07
2019-01-23T13:18:16.608Z,14.80
2019-01-23T13:20:45.242Z,16.82
2019-01-23T13:23:19.690Z,21.17
2019-01-23T13:25:44.481Z,16.65
2019-01-23T13:28:13.031Z,12.28
2019-01-23T13:30:41.708Z,14.55
2019-01-23T13:33:10.335Z,18.82
2019-01-23T13:35:39.496Z,13.38
2019-01-23T13:38:11.115Z,24.05
2019-01-23T13:40:39.801Z,20.75
2019-01-23T13:43:08.655Z,17.67
2019-01-23T13:45:37.324Z,20.08
2019-01-23T13:48:07.039Z,17.07
2019-01-23T13:50:35.717Z,18.82
2019-01-23T13:53:05.042Z,16.57
2019-01-23T13:55:33.659Z,13.05
2019-01-23T13:58:06.792Z,20.05
2019-01-23T14:00:40.594Z,20.45
2019-01-23T14:03:09.339Z,22.02
2019-01-23T14:05:37.955Z,9.80
2019-01-23T14:08:07.312Z,10.50
2019-01-23T14:10:36.326Z,12.13
2019-01-23T14:13:05.347Z,13.95
2019-01-23T14:15:36.253Z,7.92
2019-01-23T14:18:05.889Z,8.33
2019-01-23T14:20:34.629Z,14.85
2019-01-23T14:23:03.375Z,7.65
2019-01-23T14:25:32.003Z,7.72
2019-01-23T14:28:00.618Z,6.83
2019-01-23T14:30:38.113Z,10.43
2019-01-23T14:33:06.845Z,8.65
2019-01-23T14:35:36.568Z,6.97
2019-01-23T14:38:05.929Z,7.10
2019-01-23T14:40:34.753Z,8.68
2019-01-23T14:43:03.367Z,7.33
2019-01-23T14:45:32.012Z,7.80
2019-01-23T14:48:00.570Z,8.13
2019-01-23T14:50:29.208Z,7.92
2019-01-23T14:52:57.841Z,6.50
2019-01-23T14:55:26.462Z,9.55
2019-01-23T14:57:55.082Z,9.53
2019-01-23T15:00:25.758Z,10.00
2019-01-23T15:02:54.485Z,8.07
2019-01-23T15:05:23.406Z,11.97
2019-01-23T15:07:52.068Z,14.23
2019-01-23T15:10:26.756Z,15.18
2019-01-23T15:12:55.860Z,15.78
2019-01-23T15:15:24.701Z,20.75
2019-01-23T15:17:53.845Z,16.50
2019-01-23T15:20:31.330Z,16.17
2019-01-23T15:23:00.017Z,21.27
2019-01-23T15:25:28.663Z,18.60
2019-01-23T15:27:57.299Z,19.53
2019-01-23T15:30:26.221Z,22.97
2019-01-23T15:32:54.783Z,20.85
2019-01-23T15:35:23.422Z,23.27
2019-01-23T15:37:52.292Z,23.20
2019-01-23T15:40:29.288Z,27.75
2019-01-23T15:42:57.971Z,25.87
2019-01-23T15:45:26.601Z,30.20
2019-01-23T15:47:55.239Z,22.90
2019-01-23T15:50:26.059Z,27.73
2019-01-23T15:52:54.696Z,24.63
2019-01-23T15:55:25.220Z,21.55
2019-01-23T15:57:54.047Z,25.70
2019-01-23T16:00:28.366Z,20.13
2019-01-23T16:02:56.999Z,19.20
2019-01-23T16:05:25.666Z,19.23
2019-01-23T16:07:54.291Z,21.57
2019-01-23T16:10:29.447Z,18.90
2019-01-23T16:12:58.114Z,19.83
2019-01-23T16:15:28.258Z,20.77
2019-01-23T16:17:57.571Z,19.60
2019-01-23T16:20:26.441Z,17.30
2019-01-23T16:22:55.063Z,19.37
2019-01-23T16:25:23.713Z,22.20
2019-01-23T16:27:52.270Z,21.13
2019-01-23T16:30:24.073Z,22.07
2019-01-23T16:32:52.697Z,22.83
2019-01-23T16:35:21.394Z,21.93
2019-01-23T16:37:50.239Z,19.33
2019-01-23T16:40:18.873Z,21.55
2019-01-23T16:42:47.541Z,33.88
2019-01-23T16:45:18.589Z,19.33
2019-01-23T16:47:47.238Z,16.03
2019-01-23T16:50:24.300Z,16.87
2019-01-23T16:52:54.035Z,19.07
2019-01-23T16:55:22.856Z,18.17
2019-01-23T16:57:51.605Z,20.13
2019-01-23T17:00:22.929Z,20.17
2019-01-23T17:02:51.637Z,19.80
2019-01-23T17:05:26.425Z,15.00
2019-01-23T17:07:55.875Z,12.97
2019-01-23T17:10:26.317Z,22.63
2019-01-23T17:12:55.166Z,13.97
2019-01-23T17:15:23.788Z,14.27
2019-01-23T17:17:52.426Z,17.20
2019-01-23T17:20:38.691Z,15.67
2019-01-23T17:23:07.916Z,15.83
2019-01-23T17:25:36.561Z,15.93
2019-01-23T17:28:07.189Z,19.07
2019-01-23T17:30:36.014Z,16.60
2019-01-23T17:33:05.053Z,14.93
2019-01-23T17:35:33.728Z,14.90
2019-01-23T17:38:02.360Z,14.27
2019-01-23T17:40:31.052Z,18.07
2019-01-23T17:42:59.741Z,15.87
2019-01-23T17:45:37.054Z,16.17
2019-01-23T17:48:08.245Z,9.47
2019-01-23T17:50:36.882Z,16.70
2019-01-23T17:53:05.734Z,13.13
2019-01-23T17:55:36.595Z,14.63
2019-01-23T17:58:07.326Z,14.90
2019-01-23T18:00:38.077Z,15.43
2019-01-23T18:03:07.215Z,5.93
2019-01-23T18:05:35.853Z,13.83
2019-01-23T18:08:04.875Z,11.73
2019-01-23T18:10:33.534Z,15.07
2019-01-23T18:13:02.101Z,9.87
2019-01-23T18:15:33.526Z,9.03
2019-01-23T18:18:02.249Z,7.33
2019-01-23T18:20:30.910Z,9.27
2019-01-23T18:22:59.538Z,8.60
2019-01-23T18:25:33.023Z,9.87
2019-01-23T18:28:01.754Z,11.13
2019-01-23T18:30:36.023Z,8.73
2019-01-23T18:33:07.677Z,8.87
2019-01-23T18:35:57.632Z,7.80
2019-01-23T18:38:31.902Z,9.07
2019-01-23T18:41:03.444Z,9.50
2019-01-23T18:43:53.106Z,8.57
2019-01-23T18:46:36.846Z,7.43
2019-01-23T18:49:26.565Z,9.20
2019-01-23T18:52:13.048Z,6.07
2019-01-23T18:54:42.707Z,12.03
2019-01-23T18:57:26.150Z,12.07
2019-01-23T18:59:59.181Z,8.07
2019-01-23T19:02:25.350Z,11.07
2019-01-23T19:04:53.987Z,11.60
2019-01-23T19:07:22.647Z,5.10
2019-01-23T19:09:51.312Z,10.07
2019-01-23T19:12:19.934Z,12.13
2019-01-23T19:14:48.573Z,9.58
2019-01-23T19:17:17.305Z,8.83
2019-01-23T19:19:45.957Z,11.10
2019-01-23T19:22:14.593Z,5.73
2019-01-23T19:24:43.358Z,9.20
2019-01-23T19:27:11.989Z,11.23
2019-01-23T19:29:40.543Z,14.00
2019-01-23T19:32:09.202Z,11.27
2019-01-23T19:34:37.829Z,11.23
2019-01-23T19:37:06.455Z,7.50
2019-01-23T19:39:35.097Z,6.53
2019-01-23T19:42:03.713Z,4.58
2019-01-23T19:44:32.364Z,7.03
2019-01-23T19:47:01.204Z,11.07
2019-01-23T19:49:29.759Z,7.07
2019-01-23T19:51:58.380Z,7.60
2019-01-23T19:54:27.281Z,5.97
2019-01-23T19:56:55.914Z,4.43
2019-01-23T19:59:24.467Z,7.10
2019-01-23T20:01:53.131Z,8.17
2019-01-23T20:04:21.685Z,6.92
2019-01-23T20:06:50.307Z,4.13
2019-01-23T20:09:18.940Z,8.13
2019-01-23T20:11:47.564Z,9.10
2019-01-23T20:14:16.240Z,10.20
2019-01-23T20:16:44.878Z,12.43
2019-01-23T20:19:13.584Z,10.93
2019-01-23T20:21:42.242Z,13.70
2019-01-23T20:24:10.785Z,8.23
2019-01-23T20:26:39.350Z,10.53
2019-01-23T20:29:08.353Z,10.50
2019-01-23T20:31:36.973Z,10.97
2019-01-23T20:34:05.814Z,14.57
2019-01-23T20:36:34.715Z,15.27
2019-01-23T20:39:05.008Z,14.33
2019-01-23T20:41:33.637Z,11.67
2019-01-23T20:44:02.257Z,12.43
2019-01-23T20:46:30.963Z,14.37
2019-01-23T20:48:59.588Z,15.77
2019-01-23T20:51:28.472Z,11.53
2019-01-23T20:53:57.095Z,9.47
2019-01-23T20:56:25.719Z,9.70
2019-01-23T20:58:54.256Z,11.73
2019-01-23T21:01:22.885Z,11.65
2019-01-23T21:03:51.527Z,16.13
2019-01-23T21:06:20.194Z,17.33
2019-01-23T21:08:49.102Z,15.07
2019-01-23T21:11:18.001Z,17.90
2019-01-23T21:13:47.009Z,16.00
2019-01-23T21:16:15.884Z,15.15
2019-01-23T21:18:44.666Z,12.97
2019-01-23T21:21:13.347Z,17.73
2019-01-23T21:23:41.913Z,11.53
2019-01-23T21:26:10.536Z,12.87
2019-01-23T21:28:39.204Z,12.05
2019-01-23T21:31:07.909Z,19.43
2019-01-23T21:33:42.087Z,17.67
2019-01-23T21:36:07.369Z,21.95
2019-01-23T21:38:35.981Z,23.40
2019-01-23T21:41:04.798Z,21.07
2019-01-23T21:43:33.548Z,19.57
2019-01-23T21:46:02.178Z,13.20
2019-01-23T21:48:30.814Z,18.27
2019-01-23T21:50:59.418Z,15.08
2019-01-23T21:53:28.065Z,19.77
2019-01-23T21:55:56.690Z,16.62
2019-01-23T21:58:25.462Z,19.70
2019-01-23T22:00:56.892Z,17.73
2019-01-23T22:03:25.524Z,16.73
2019-01-23T22:05:54.210Z,18.42
2019-01-23T22:08:22.849Z,18.40
2019-01-23T22:10:51.478Z,14.80
2019-01-23T22:13:20.186Z,13.57
2019-01-23T22:15:48.808Z,9.20
2019-01-23T22:18:17.434Z,11.60
2019-01-23T22:20:46.096Z,4.87
2019-01-23T22:23:14.727Z,2.43
2019-01-23T22:25:43.373Z,3.02
2019-01-23T22:28:12.054Z,4.97
2019-01-23T22:30:40.608Z,3.55
2019-01-23T22:33:09.242Z,6.70
2019-01-23T22:35:40.957Z,7.53
2019-01-23T22:38:09.585Z,15.10
2019-01-23T22:40:38.207Z,22.67
2019-01-23T22:43:06.874Z,28.85
2019-01-23T22:45:35.539Z,26.40
2019-01-23T22:48:04.671Z,26.77
2019-01-23T22:50:33.380Z,34.15
2019-01-23T22:53:02.011Z,35.92
2019-01-23T22:55:30.659Z,29.52
2019-01-23T22:57:59.502Z,35.00
2019-01-23T23:00:38.071Z,34.23
2019-01-23T23:03:08.691Z,26.57
2019-01-23T23:05:37.319Z,31.73
2019-01-23T23:08:06.640Z,34.30
2019-01-23T23:10:35.319Z,27.13
2019-01-23T23:13:04.083Z,22.30
2019-01-23T23:15:32.781Z,6.30
2019-01-23T23:18:01.447Z,7.22
2019-01-23T23:20:30.073Z,3.77
2019-01-23T23:22:58.687Z,2.33
2019-01-23T23:25:27.339Z,7.35
2019-01-23T23:27:55.951Z,2.85
2019-01-23T23:30:26.047Z,3.50
2019-01-23T23:32:54.928Z,3.75
2019-01-23T23:35:23.647Z,4.97
2019-01-23T23:37:52.195Z,4.97
2019-01-23T23:40:20.844Z,4.72
2019-01-23T23:42:49.581Z,2.45
2019-01-23T23:45:19.103Z,3.17
2019-01-23T23:47:47.763Z,3.27
2019-01-23T23:50:17.492Z,2.60
2019-01-23T23:52:46.320Z,4.12
2019-01-23T23:55:16.291Z,3.80
2019-01-23T23:57:45.123Z,4.13
